sensor_id;sensor_type;location;lat;lon;timestamp;P1;durP1;ratioP1;P2;durP2;ratioP2
35434;SDS011;21556;55.782;37.528;2022-09-09T00:00:49;4.57;;;2.53;;
35434;SDS011;21556;55.782;37.528;2022-09-09T00:03:27;3.38;;;1.88;;
35434;SDS011;21556;55.782;37.528;2022-09-09T00:06:07;4.95;;;2.60;;
35434;SDS011;21556;55.782;37.528;2022-09-09T00:09:40;2.83;;;2.10;;
35434;SDS011;21556;55.782;37.528;2022-09-09T00:11:59;4.35;;;1.90;;
35434;SDS011;21556;55.782;37.528;2022-09-09T00:20:56;3.60;;;2.22;;
35434;SDS011;21556;55.782;37.528;2022-09-09T00:23:29;3.95;;;2.10;;
35434;SDS011;21556;55.782;37.528;2022-09-09T00:26:08;4.70;;;2.58;;
35434;SDS011;21556;55.782;37.528;2022-09-09T00:28:46;8.30;;;2.30;;
35434;SDS011;21556;55.782;37.528;2022-09-09T00:31:27;4.82;;;2.10;;
35434;SDS011;21556;55.782;37.528;2022-09-09T00:33:55;5.30;;;2.28;;
35434;SDS011;21556;55.782;37.528;2022-09-09T00:36:31;2.92;;;2.05;;
35434;SDS011;21556;55.782;37.528;2022-09-09T00:39:03;5.13;;;2.42;;
35434;SDS011;21556;55.782;37.528;2022-09-09T00:44:12;4.72;;;2.35;;
35434;SDS011;21556;55.782;37.528;2022-09-09T00:46:55;6.40;;;2.22;;
35434;SDS011;21556;55.782;37.528;2022-09-09T00:57:23;5.95;;;2.67;;
35434;SDS011;21556;55.782;37.528;2022-09-09T01:02:34;4.78;;;2.70;;
35434;SDS011;21556;55.782;37.528;2022-09-09T01:05:39;5.63;;;2.67;;
35434;SDS011;21556;55.782;37.528;2022-09-09T01:08:22;3.05;;;1.98;;
35434;SDS011;21556;55.782;37.528;2022-09-09T01:11:06;6.72;;;2.50;;
35434;SDS011;21556;55.782;37.528;2022-09-09T01:13:42;3.60;;;2.05;;
35434;SDS011;21556;55.782;37.528;2022-09-09T01:16:14;3.50;;;2.50;;
35434;SDS011;21556;55.782;37.528;2022-09-09T01:18:46;7.72;;;2.88;;
35434;SDS011;21556;55.782;37.528;2022-09-09T01:27:15;4.95;;;2.70;;
35434;SDS011;21556;55.782;37.528;2022-09-09T01:29:43;5.47;;;2.60;;
35434;SDS011;21556;55.782;37.528;2022-09-09T01:35:05;4.47;;;2.78;;
35434;SDS011;21556;55.782;37.528;2022-09-09T01:37:36;6.68;;;2.50;;
35434;SDS011;21556;55.782;37.528;2022-09-09T01:40:02;7.93;;;2.47;;
35434;SDS011;21556;55.782;37.528;2022-09-09T01:42:31;5.45;;;2.35;;
35434;SDS011;21556;55.782;37.528;2022-09-09T01:44:59;4.50;;;2.20;;
35434;SDS011;21556;55.782;37.528;2022-09-09T01:47:25;5.43;;;2.45;;
35434;SDS011;21556;55.782;37.528;2022-09-09T01:50:12;2.08;;;1.70;;
35434;SDS011;21556;55.782;37.528;2022-09-09T01:52:41;2.78;;;2.10;;
35434;SDS011;21556;55.782;37.528;2022-09-09T01:55:14;6.55;;;2.70;;
35434;SDS011;21556;55.782;37.528;2022-09-09T01:57:55;4.28;;;2.10;;
35434;SDS011;21556;55.782;37.528;2022-09-09T02:00:55;4.70;;;2.40;;
35434;SDS011;21556;55.782;37.528;2022-09-09T02:03:28;4.75;;;2.15;;
35434;SDS011;21556;55.782;37.528;2022-09-09T02:06:25;3.55;;;2.30;;
35434;SDS011;21556;55.782;37.528;2022-09-09T02:09:09;5.45;;;2.25;;
35434;SDS011;21556;55.782;37.528;2022-09-09T02:11:43;3.78;;;2.20;;
35434;SDS011;21556;55.782;37.528;2022-09-09T02:14:27;6.85;;;2.33;;
35434;SDS011;21556;55.782;37.528;2022-09-09T02:17:01;2.90;;;2.30;;
35434;SDS011;21556;55.782;37.528;2022-09-09T02:20:06;2.88;;;1.98;;
35434;SDS011;21556;55.782;37.528;2022-09-09T02:22:55;3.47;;;2.05;;
35434;SDS011;21556;55.782;37.528;2022-09-09T02:25:25;4.28;;;1.63;;
35434;SDS011;21556;55.782;37.528;2022-09-09T02:28:03;2.47;;;1.80;;
35434;SDS011;21556;55.782;37.528;2022-09-09T02:30:34;3.30;;;1.70;;
35434;SDS011;21556;55.782;37.528;2022-09-09T02:33:02;4.53;;;1.88;;
35434;SDS011;21556;55.782;37.528;2022-09-09T02:35:43;2.47;;;1.63;;
35434;SDS011;21556;55.782;37.528;2022-09-09T02:38:18;4.75;;;1.90;;
35434;SDS011;21556;55.782;37.528;2022-09-09T02:41:00;2.70;;;1.67;;
35434;SDS011;21556;55.782;37.528;2022-09-09T02:43:33;5.35;;;2.08;;
35434;SDS011;21556;55.782;37.528;2022-09-09T02:54:44;1.98;;;1.67;;
35434;SDS011;21556;55.782;37.528;2022-09-09T02:57:27;2.55;;;1.80;;
35434;SDS011;21556;55.782;37.528;2022-09-09T02:59:57;5.22;;;1.60;;
35434;SDS011;21556;55.782;37.528;2022-09-09T03:02:24;5.25;;;1.80;;
35434;SDS011;21556;55.782;37.528;2022-09-09T03:04:56;4.55;;;1.67;;
35434;SDS011;21556;55.782;37.528;2022-09-09T03:07:21;2.80;;;1.90;;
35434;SDS011;21556;55.782;37.528;2022-09-09T03:09:49;3.15;;;1.60;;
35434;SDS011;21556;55.782;37.528;2022-09-09T03:12:17;4.93;;;1.97;;
35434;SDS011;21556;55.782;37.528;2022-09-09T03:14:44;2.70;;;1.50;;
35434;SDS011;21556;55.782;37.528;2022-09-09T03:17:14;1.92;;;1.55;;
35434;SDS011;21556;55.782;37.528;2022-09-09T03:19:48;2.75;;;1.65;;
35434;SDS011;21556;55.782;37.528;2022-09-09T03:22:17;1.65;;;1.25;;
35434;SDS011;21556;55.782;37.528;2022-09-09T03:24:46;3.45;;;1.88;;
35434;SDS011;21556;55.782;37.528;2022-09-09T03:27:14;3.25;;;1.55;;
35434;SDS011;21556;55.782;37.528;2022-09-09T03:29:42;2.35;;;1.73;;
35434;SDS011;21556;55.782;37.528;2022-09-09T03:32:12;3.28;;;1.75;;
35434;SDS011;21556;55.782;37.528;2022-09-09T03:34:40;3.35;;;2.30;;
35434;SDS011;21556;55.782;37.528;2022-09-09T03:37:12;2.70;;;2.25;;
35434;SDS011;21556;55.782;37.528;2022-09-09T03:39:38;3.05;;;1.77;;
35434;SDS011;21556;55.782;37.528;2022-09-09T03:42:08;3.17;;;1.60;;
35434;SDS011;21556;55.782;37.528;2022-09-09T03:44:49;3.15;;;1.80;;
35434;SDS011;21556;55.782;37.528;2022-09-09T03:47:28;3.63;;;2.17;;
35434;SDS011;21556;55.782;37.528;2022-09-09T03:50:02;7.60;;;1.80;;
35434;SDS011;21556;55.782;37.528;2022-09-09T03:52:31;4.78;;;1.95;;
35434;SDS011;21556;55.782;37.528;2022-09-09T03:55:01;5.75;;;2.30;;
35434;SDS011;21556;55.782;37.528;2022-09-09T03:57:29;3.45;;;2.08;;
35434;SDS011;21556;55.782;37.528;2022-09-09T03:59:57;3.95;;;2.40;;
35434;SDS011;21556;55.782;37.528;2022-09-09T04:02:31;4.15;;;2.17;;
35434;SDS011;21556;55.782;37.528;2022-09-09T04:04:57;4.95;;;2.35;;
35434;SDS011;21556;55.782;37.528;2022-09-09T04:09:53;4.35;;;2.35;;
35434;SDS011;21556;55.782;37.528;2022-09-09T04:12:25;3.85;;;2.28;;
35434;SDS011;21556;55.782;37.528;2022-09-09T04:14:53;8.15;;;2.67;;
35434;SDS011;21556;55.782;37.528;2022-09-09T04:17:20;5.05;;;2.53;;
35434;SDS011;21556;55.782;37.528;2022-09-09T04:19:50;5.10;;;3.65;;
35434;SDS011;21556;55.782;37.528;2022-09-09T04:22:19;5.45;;;4.00;;
35434;SDS011;21556;55.782;37.528;2022-09-09T04:24:46;6.85;;;4.00;;
35434;SDS011;21556;55.782;37.528;2022-09-09T04:27:19;10.35;;;4.40;;
35434;SDS011;21556;55.782;37.528;2022-09-09T04:29:54;8.38;;;4.47;;
35434;SDS011;21556;55.782;37.528;2022-09-09T04:32:26;6.07;;;3.95;;
35434;SDS011;21556;55.782;37.528;2022-09-09T04:34:56;7.13;;;4.72;;
35434;SDS011;21556;55.782;37.528;2022-09-09T04:37:24;4.78;;;3.75;;
35434;SDS011;21556;55.782;37.528;2022-09-09T04:39:51;6.78;;;4.22;;
35434;SDS011;21556;55.782;37.528;2022-09-09T04:42:17;7.70;;;3.80;;
35434;SDS011;21556;55.782;37.528;2022-09-09T04:44:47;5.75;;;3.70;;
35434;SDS011;21556;55.782;37.528;2022-09-09T04:47:23;5.80;;;4.13;;
35434;SDS011;21556;55.782;37.528;2022-09-09T04:49:51;5.88;;;3.85;;
35434;SDS011;21556;55.782;37.528;2022-09-09T04:52:21;6.40;;;3.42;;
35434;SDS011;21556;55.782;37.528;2022-09-09T04:54:49;8.35;;;3.20;;
35434;SDS011;21556;55.782;37.528;2022-09-09T04:57:18;6.47;;;3.50;;
35434;SDS011;21556;55.782;37.528;2022-09-09T05:02:13;8.32;;;3.08;;
35434;SDS011;21556;55.782;37.528;2022-09-09T05:04:51;5.97;;;2.75;;
35434;SDS011;21556;55.782;37.528;2022-09-09T05:07:29;7.70;;;2.80;;
35434;SDS011;21556;55.782;37.528;2022-09-09T05:10:48;5.32;;;2.70;;
35434;SDS011;21556;55.782;37.528;2022-09-09T05:13:30;4.88;;;3.13;;
35434;SDS011;21556;55.782;37.528;2022-09-09T05:16:08;4.82;;;2.30;;
35434;SDS011;21556;55.782;37.528;2022-09-09T05:18:40;5.97;;;2.38;;
35434;SDS011;21556;55.782;37.528;2022-09-09T05:21:12;6.93;;;1.95;;
35434;SDS011;21556;55.782;37.528;2022-09-09T05:23:46;4.90;;;1.95;;
35434;SDS011;21556;55.782;37.528;2022-09-09T05:26:29;6.47;;;2.45;;
35434;SDS011;21556;55.782;37.528;2022-09-09T05:28:57;6.93;;;2.38;;
35434;SDS011;21556;55.782;37.528;2022-09-09T05:31:35;5.28;;;2.25;;
35434;SDS011;21556;55.782;37.528;2022-09-09T05:34:10;3.05;;;2.40;;
35434;SDS011;21556;55.782;37.528;2022-09-09T05:36:41;3.88;;;2.67;;
35434;SDS011;21556;55.782;37.528;2022-09-09T05:39:09;5.80;;;2.83;;
35434;SDS011;21556;55.782;37.528;2022-09-09T05:41:37;8.52;;;2.30;;
35434;SDS011;21556;55.782;37.528;2022-09-09T05:44:07;3.30;;;1.80;;
35434;SDS011;21556;55.782;37.528;2022-09-09T05:46:40;3.25;;;2.00;;
35434;SDS011;21556;55.782;37.528;2022-09-09T05:49:13;3.22;;;1.70;;
35434;SDS011;21556;55.782;37.528;2022-09-09T05:51:44;2.25;;;1.95;;
35434;SDS011;21556;55.782;37.528;2022-09-09T05:54:17;4.25;;;1.67;;
35434;SDS011;21556;55.782;37.528;2022-09-09T05:56:50;3.80;;;1.70;;
35434;SDS011;21556;55.782;37.528;2022-09-09T05:59:19;3.63;;;1.80;;
35434;SDS011;21556;55.782;37.528;2022-09-09T06:01:50;3.10;;;1.75;;
35434;SDS011;21556;55.782;37.528;2022-09-09T06:04:28;2.28;;;1.58;;
35434;SDS011;21556;55.782;37.528;2022-09-09T06:06:59;3.35;;;1.70;;
35434;SDS011;21556;55.782;37.528;2022-09-09T06:09:30;7.30;;;1.65;;
35434;SDS011;21556;55.782;37.528;2022-09-09T06:11:58;7.30;;;1.50;;
35434;SDS011;21556;55.782;37.528;2022-09-09T06:14:28;2.13;;;1.10;;
35434;SDS011;21556;55.782;37.528;2022-09-09T06:16:58;8.23;;;0.93;;
35434;SDS011;21556;55.782;37.528;2022-09-09T06:19:29;2.80;;;1.17;;
35434;SDS011;21556;55.782;37.528;2022-09-09T06:21:59;1.98;;;1.23;;
35434;SDS011;21556;55.782;37.528;2022-09-09T06:24:29;3.63;;;1.10;;
35434;SDS011;21556;55.782;37.528;2022-09-09T06:27:02;4.32;;;1.00;;
35434;SDS011;21556;55.782;37.528;2022-09-09T06:29:37;4.05;;;1.17;;
35434;SDS011;21556;55.782;37.528;2022-09-09T06:32:05;6.43;;;1.10;;
35434;SDS011;21556;55.782;37.528;2022-09-09T06:34:47;4.15;;;1.08;;
35434;SDS011;21556;55.782;37.528;2022-09-09T06:37:23;3.92;;;1.20;;
35434;SDS011;21556;55.782;37.528;2022-09-09T06:39:57;2.88;;;1.30;;
35434;SDS011;21556;55.782;37.528;2022-09-09T06:42:26;7.00;;;1.30;;
35434;SDS011;21556;55.782;37.528;2022-09-09T06:45:10;2.80;;;1.10;;
35434;SDS011;21556;55.782;37.528;2022-09-09T06:47:44;3.10;;;1.05;;
35434;SDS011;21556;55.782;37.528;2022-09-09T06:50:12;3.45;;;0.90;;
35434;SDS011;21556;55.782;37.528;2022-09-09T06:52:46;1.92;;;0.70;;
35434;SDS011;21556;55.782;37.528;2022-09-09T06:55:13;3.05;;;0.95;;
35434;SDS011;21556;55.782;37.528;2022-09-09T06:57:45;3.33;;;0.82;;
35434;SDS011;21556;55.782;37.528;2022-09-09T07:00:17;2.00;;;0.80;;
35434;SDS011;21556;55.782;37.528;2022-09-09T07:02:45;6.93;;;1.33;;
35434;SDS011;21556;55.782;37.528;2022-09-09T07:07:44;1.55;;;0.80;;
35434;SDS011;21556;55.782;37.528;2022-09-09T07:10:14;1.13;;;0.63;;
35434;SDS011;21556;55.782;37.528;2022-09-09T07:12:40;3.45;;;1.20;;
35434;SDS011;21556;55.782;37.528;2022-09-09T07:15:09;3.50;;;0.90;;
35434;SDS011;21556;55.782;37.528;2022-09-09T07:17:40;1.92;;;0.60;;
35434;SDS011;21556;55.782;37.528;2022-09-09T07:20:06;2.65;;;0.70;;
35434;SDS011;21556;55.782;37.528;2022-09-09T07:22:35;2.35;;;0.68;;
35434;SDS011;21556;55.782;37.528;2022-09-09T07:25:05;1.13;;;0.40;;
35434;SDS011;21556;55.782;37.528;2022-09-09T07:27:37;2.50;;;0.40;;
35434;SDS011;21556;55.782;37.528;2022-09-09T07:30:06;7.68;;;1.02;;
35434;SDS011;21556;55.782;37.528;2022-09-09T07:32:35;5.13;;;0.80;;
35434;SDS011;21556;55.782;37.528;2022-09-09T07:35:05;3.53;;;0.52;;
35434;SDS011;21556;55.782;37.528;2022-09-09T07:37:36;2.15;;;0.50;;
35434;SDS011;21556;55.782;37.528;2022-09-09T07:40:06;0.80;;;0.40;;
35434;SDS011;21556;55.782;37.528;2022-09-09T07:42:36;3.35;;;0.60;;
35434;SDS011;21556;55.782;37.528;2022-09-09T07:45:09;0.85;;;0.45;;
35434;SDS011;21556;55.782;37.528;2022-09-09T07:47:38;1.05;;;0.50;;
35434;SDS011;21556;55.782;37.528;2022-09-09T07:50:20;2.50;;;0.50;;
35434;SDS011;21556;55.782;37.528;2022-09-09T07:52:55;1.08;;;0.55;;
35434;SDS011;21556;55.782;37.528;2022-09-09T07:55:25;1.00;;;0.50;;
35434;SDS011;21556;55.782;37.528;2022-09-09T07:57:58;5.15;;;0.93;;
35434;SDS011;21556;55.782;37.528;2022-09-09T08:00:26;3.80;;;0.70;;
35434;SDS011;21556;55.782;37.528;2022-09-09T08:02:59;3.28;;;0.50;;
35434;SDS011;21556;55.782;37.528;2022-09-09T08:05:28;0.65;;;0.35;;
35434;SDS011;21556;55.782;37.528;2022-09-09T08:07:56;1.23;;;0.60;;
35434;SDS011;21556;55.782;37.528;2022-09-09T08:10:29;1.45;;;0.47;;
35434;SDS011;21556;55.782;37.528;2022-09-09T08:12:57;0.80;;;0.40;;
35434;SDS011;21556;55.782;37.528;2022-09-09T08:15:31;1.27;;;0.55;;
35434;SDS011;21556;55.782;37.528;2022-09-09T08:17:59;1.75;;;0.60;;
35434;SDS011;21556;55.782;37.528;2022-09-09T08:20:26;1.00;;;0.40;;
35434;SDS011;21556;55.782;37.528;2022-09-09T08:22:54;4.05;;;0.90;;
35434;SDS011;21556;55.782;37.528;2022-09-09T08:25:23;1.17;;;0.50;;
35434;SDS011;21556;55.782;37.528;2022-09-09T08:27:49;2.58;;;0.63;;
35434;SDS011;21556;55.782;37.528;2022-09-09T08:30:17;4.10;;;0.60;;
35434;SDS011;21556;55.782;37.528;2022-09-09T08:32:43;1.60;;;0.52;;
35434;SDS011;21556;55.782;37.528;2022-09-09T08:35:11;2.15;;;0.65;;
35434;SDS011;21556;55.782;37.528;2022-09-09T08:37:40;1.20;;;0.60;;
35434;SDS011;21556;55.782;37.528;2022-09-09T08:40:08;8.90;;;0.90;;
35434;SDS011;21556;55.782;37.528;2022-09-09T08:42:45;2.28;;;0.85;;
35434;SDS011;21556;55.782;37.528;2022-09-09T08:45:19;1.38;;;0.70;;
35434;SDS011;21556;55.782;37.528;2022-09-09T08:47:51;2.47;;;0.68;;
35434;SDS011;21556;55.782;37.528;2022-09-09T08:50:30;2.78;;;0.35;;
35434;SDS011;21556;55.782;37.528;2022-09-09T08:53:28;1.40;;;0.70;;
35434;SDS011;21556;55.782;37.528;2022-09-09T08:56:08;0.70;;;0.40;;
35434;SDS011;21556;55.782;37.528;2022-09-09T08:58:47;1.70;;;0.47;;
35434;SDS011;21556;55.782;37.528;2022-09-09T09:10:01;0.90;;;0.55;;
35434;SDS011;21556;55.782;37.528;2022-09-09T09:12:41;1.95;;;0.82;;
35434;SDS011;21556;55.782;37.528;2022-09-09T09:15:18;2.15;;;0.50;;
35434;SDS011;21556;55.782;37.528;2022-09-09T09:17:51;2.63;;;0.70;;
35434;SDS011;21556;55.782;37.528;2022-09-09T09:20:18;1.73;;;0.60;;
35434;SDS011;21556;55.782;37.528;2022-09-09T09:22:55;0.88;;;0.52;;
35434;SDS011;21556;55.782;37.528;2022-09-09T09:25:32;1.02;;;0.50;;
35434;SDS011;21556;55.782;37.528;2022-09-09T09:28:26;1.00;;;0.47;;
35434;SDS011;21556;55.782;37.528;2022-09-09T09:31:22;1.00;;;0.55;;
35434;SDS011;21556;55.782;37.528;2022-09-09T09:33:54;1.85;;;1.40;;
35434;SDS011;21556;55.782;37.528;2022-09-09T09:36:41;4.93;;;0.75;;
35434;SDS011;21556;55.782;37.528;2022-09-09T09:39:26;1.00;;;0.60;;
35434;SDS011;21556;55.782;37.528;2022-09-09T09:41:57;1.98;;;0.75;;
35434;SDS011;21556;55.782;37.528;2022-09-09T09:44:28;2.13;;;0.50;;
35434;SDS011;21556;55.782;37.528;2022-09-09T09:49:59;1.42;;;0.80;;
35434;SDS011;21556;55.782;37.528;2022-09-09T09:52:33;2.67;;;1.42;;
35434;SDS011;21556;55.782;37.528;2022-09-09T09:55:03;9.57;;;3.17;;
35434;SDS011;21556;55.782;37.528;2022-09-09T09:57:44;1.90;;;0.70;;
35434;SDS011;21556;55.782;37.528;2022-09-09T10:02:44;3.13;;;0.70;;
35434;SDS011;21556;55.782;37.528;2022-09-09T10:05:53;2.60;;;0.73;;
35434;SDS011;21556;55.782;37.528;2022-09-09T10:08:32;1.50;;;0.80;;
35434;SDS011;21556;55.782;37.528;2022-09-09T10:11:18;0.88;;;0.60;;
35434;SDS011;21556;55.782;37.528;2022-09-09T10:14:05;2.75;;;0.70;;
35434;SDS011;21556;55.782;37.528;2022-09-09T10:16:59;1.60;;;0.70;;
35434;SDS011;21556;55.782;37.528;2022-09-09T10:19:37;0.88;;;0.40;;
35434;SDS011;21556;55.782;37.528;2022-09-09T10:23:14;2.60;;;0.90;;
35434;SDS011;21556;55.782;37.528;2022-09-09T10:31:33;1.17;;;0.55;;
35434;SDS011;21556;55.782;37.528;2022-09-09T10:36:52;6.47;;;4.85;;
35434;SDS011;21556;55.782;37.528;2022-09-09T10:42:06;1.70;;;0.88;;
35434;SDS011;21556;55.782;37.528;2022-09-09T10:44:47;1.13;;;0.80;;
35434;SDS011;21556;55.782;37.528;2022-09-09T10:53:08;1.70;;;1.00;;
35434;SDS011;21556;55.782;37.528;2022-09-09T10:55:59;2.05;;;0.80;;
35434;SDS011;21556;55.782;37.528;2022-09-09T10:58:53;1.88;;;0.55;;
35434;SDS011;21556;55.782;37.528;2022-09-09T11:01:26;4.10;;;0.70;;
35434;SDS011;21556;55.782;37.528;2022-09-09T11:04:16;1.38;;;0.70;;
35434;SDS011;21556;55.782;37.528;2022-09-09T11:06:50;2.95;;;0.80;;
35434;SDS011;21556;55.782;37.528;2022-09-09T11:09:32;0.90;;;0.40;;
35434;SDS011;21556;55.782;37.528;2022-09-09T11:12:04;1.60;;;0.50;;
35434;SDS011;21556;55.782;37.528;2022-09-09T11:17:10;0.95;;;0.60;;
35434;SDS011;21556;55.782;37.528;2022-09-09T11:19:44;4.32;;;0.82;;
35434;SDS011;21556;55.782;37.528;2022-09-09T11:24:58;1.60;;;0.70;;
35434;SDS011;21556;55.782;37.528;2022-09-09T11:39:47;1.67;;;0.67;;
35434;SDS011;21556;55.782;37.528;2022-09-09T11:42:38;3.38;;;0.80;;
35434;SDS011;21556;55.782;37.528;2022-09-09T11:53:49;2.78;;;0.80;;
35434;SDS011;21556;55.782;37.528;2022-09-09T11:56:30;1.60;;;0.70;;
35434;SDS011;21556;55.782;37.528;2022-09-09T11:59:21;3.22;;;1.23;;
35434;SDS011;21556;55.782;37.528;2022-09-09T12:01:53;1.73;;;0.90;;
35434;SDS011;21556;55.782;37.528;2022-09-09T12:11:29;5.00;;;0.75;;
35434;SDS011;21556;55.782;37.528;2022-09-09T12:13:57;1.48;;;0.90;;
35434;SDS011;21556;55.782;37.528;2022-09-09T12:16:34;1.70;;;1.20;;
35434;SDS011;21556;55.782;37.528;2022-09-09T12:21:54;1.23;;;0.80;;
35434;SDS011;21556;55.782;37.528;2022-09-09T12:30:29;3.67;;;0.95;;
35434;SDS011;21556;55.782;37.528;2022-09-09T12:33:23;1.48;;;0.50;;
35434;SDS011;21556;55.782;37.528;2022-09-09T12:35:53;6.07;;;0.90;;
35434;SDS011;21556;55.782;37.528;2022-09-09T12:38:34;2.83;;;0.70;;
35434;SDS011;21556;55.782;37.528;2022-09-09T12:41:21;1.27;;;0.70;;
35434;SDS011;21556;55.782;37.528;2022-09-09T12:44:09;0.68;;;0.40;;
35434;SDS011;21556;55.782;37.528;2022-09-09T12:46:43;2.13;;;0.80;;
35434;SDS011;21556;55.782;37.528;2022-09-09T12:49:25;2.65;;;0.70;;
35434;SDS011;21556;55.782;37.528;2022-09-09T12:52:35;1.40;;;0.47;;
35434;SDS011;21556;55.782;37.528;2022-09-09T12:55:06;2.92;;;0.40;;
35434;SDS011;21556;55.782;37.528;2022-09-09T12:57:44;3.75;;;0.63;;
35434;SDS011;21556;55.782;37.528;2022-09-09T13:00:15;2.55;;;0.68;;
35434;SDS011;21556;55.782;37.528;2022-09-09T13:02:58;3.15;;;0.52;;
35434;SDS011;21556;55.782;37.528;2022-09-09T13:05:36;2.20;;;0.73;;
35434;SDS011;21556;55.782;37.528;2022-09-09T13:08:13;3.75;;;2.40;;
35434;SDS011;21556;55.782;37.528;2022-09-09T13:10:47;1.05;;;0.43;;
35434;SDS011;21556;55.782;37.528;2022-09-09T13:13:27;2.17;;;0.52;;
35434;SDS011;21556;55.782;37.528;2022-09-09T13:16:04;1.27;;;0.57;;
35434;SDS011;21556;55.782;37.528;2022-09-09T13:18:39;2.53;;;0.63;;
35434;SDS011;21556;55.782;37.528;2022-09-09T13:21:07;1.42;;;0.70;;
35434;SDS011;21556;55.782;37.528;2022-09-09T13:23:36;1.10;;;0.40;;
35434;SDS011;21556;55.782;37.528;2022-09-09T13:26:25;1.80;;;0.50;;
35434;SDS011;21556;55.782;37.528;2022-09-09T13:28:54;1.90;;;0.60;;
35434;SDS011;21556;55.782;37.528;2022-09-09T13:31:36;3.10;;;0.90;;
35434;SDS011;21556;55.782;37.528;2022-09-09T13:34:11;3.53;;;0.63;;
35434;SDS011;21556;55.782;37.528;2022-09-09T13:36:39;3.63;;;0.90;;
35434;SDS011;21556;55.782;37.528;2022-09-09T13:39:26;3.75;;;0.85;;
35434;SDS011;21556;55.782;37.528;2022-09-09T13:41:58;1.75;;;0.73;;
35434;SDS011;21556;55.782;37.528;2022-09-09T13:44:30;1.58;;;0.70;;
35434;SDS011;21556;55.782;37.528;2022-09-09T13:47:20;4.03;;;1.40;;
35434;SDS011;21556;55.782;37.528;2022-09-09T13:50:26;1.30;;;0.63;;
35434;SDS011;21556;55.782;37.528;2022-09-09T13:52:57;2.40;;;1.90;;
35434;SDS011;21556;55.782;37.528;2022-09-09T13:55:28;2.00;;;1.13;;
35434;SDS011;21556;55.782;37.528;2022-09-09T13:58:15;2.03;;;0.70;;
35434;SDS011;21556;55.782;37.528;2022-09-09T14:00:48;1.77;;;0.70;;
35434;SDS011;21556;55.782;37.528;2022-09-09T14:03:17;3.67;;;0.77;;
35434;SDS011;21556;55.782;37.528;2022-09-09T14:05:43;1.25;;;0.70;;
35434;SDS011;21556;55.782;37.528;2022-09-09T14:08:14;3.08;;;1.00;;
35434;SDS011;21556;55.782;37.528;2022-09-09T14:10:51;2.17;;;0.98;;
35434;SDS011;21556;55.782;37.528;2022-09-09T14:13:20;8.73;;;1.00;;
35434;SDS011;21556;55.782;37.528;2022-09-09T14:15:48;4.82;;;0.80;;
35434;SDS011;21556;55.782;37.528;2022-09-09T14:18:19;2.13;;;0.70;;
35434;SDS011;21556;55.782;37.528;2022-09-09T14:20:47;2.70;;;0.80;;
35434;SDS011;21556;55.782;37.528;2022-09-09T14:23:13;3.65;;;0.70;;
35434;SDS011;21556;55.782;37.528;2022-09-09T14:25:42;6.25;;;0.77;;
35434;SDS011;21556;55.782;37.528;2022-09-09T14:28:11;2.40;;;0.68;;
35434;SDS011;21556;55.782;37.528;2022-09-09T14:30:41;5.75;;;0.77;;
35434;SDS011;21556;55.782;37.528;2022-09-09T14:33:11;1.33;;;1.00;;
35434;SDS011;21556;55.782;37.528;2022-09-09T14:35:41;1.88;;;1.30;;
35434;SDS011;21556;55.782;37.528;2022-09-09T14:38:12;2.85;;;1.60;;
35434;SDS011;21556;55.782;37.528;2022-09-09T14:40:44;3.00;;;1.63;;
35434;SDS011;21556;55.782;37.528;2022-09-09T14:43:14;3.17;;;1.23;;
35434;SDS011;21556;55.782;37.528;2022-09-09T14:45:40;5.15;;;1.05;;
35434;SDS011;21556;55.782;37.528;2022-09-09T14:48:06;1.30;;;0.90;;
35434;SDS011;21556;55.782;37.528;2022-09-09T14:53:27;1.50;;;0.88;;
35434;SDS011;21556;55.782;37.528;2022-09-09T14:56:02;1.38;;;0.70;;
35434;SDS011;21556;55.782;37.528;2022-09-09T14:59:02;3.25;;;1.00;;
35434;SDS011;21556;55.782;37.528;2022-09-09T15:01:50;3.38;;;1.10;;
35434;SDS011;21556;55.782;37.528;2022-09-09T15:04:18;3.00;;;0.90;;
35434;SDS011;21556;55.782;37.528;2022-09-09T15:06:45;2.80;;;0.90;;
35434;SDS011;21556;55.782;37.528;2022-09-09T15:09:14;3.88;;;1.00;;
35434;SDS011;21556;55.782;37.528;2022-09-09T15:11:43;1.67;;;0.95;;
35434;SDS011;21556;55.782;37.528;2022-09-09T15:14:10;3.47;;;1.25;;
35434;SDS011;21556;55.782;37.528;2022-09-09T15:16:38;3.58;;;1.27;;
35434;SDS011;21556;55.782;37.528;2022-09-09T15:19:11;3.42;;;1.13;;
35434;SDS011;21556;55.782;37.528;2022-09-09T15:21:38;4.90;;;1.30;;
35434;SDS011;21556;55.782;37.528;2022-09-09T15:24:05;2.05;;;0.98;;
35434;SDS011;21556;55.782;37.528;2022-09-09T15:26:35;4.28;;;0.82;;
35434;SDS011;21556;55.782;37.528;2022-09-09T15:29:03;2.80;;;1.40;;
35434;SDS011;21556;55.782;37.528;2022-09-09T15:31:30;2.53;;;1.58;;
35434;SDS011;21556;55.782;37.528;2022-09-09T15:34:02;5.72;;;1.60;;
35434;SDS011;21556;55.782;37.528;2022-09-09T15:36:35;3.75;;;1.55;;
35434;SDS011;21556;55.782;37.528;2022-09-09T15:39:07;5.90;;;1.70;;
35434;SDS011;21556;55.782;37.528;2022-09-09T15:41:39;2.67;;;2.05;;
35434;SDS011;21556;55.782;37.528;2022-09-09T15:47:12;3.65;;;1.70;;
35434;SDS011;21556;55.782;37.528;2022-09-09T15:49:40;3.92;;;1.20;;
35434;SDS011;21556;55.782;37.528;2022-09-09T15:52:15;2.30;;;1.20;;
35434;SDS011;21556;55.782;37.528;2022-09-09T15:54:48;2.13;;;1.10;;
35434;SDS011;21556;55.782;37.528;2022-09-09T15:57:17;2.33;;;1.20;;
35434;SDS011;21556;55.782;37.528;2022-09-09T15:59:53;2.85;;;0.90;;
35434;SDS011;21556;55.782;37.528;2022-09-09T16:02:22;2.25;;;0.95;;
35434;SDS011;21556;55.782;37.528;2022-09-09T16:08:06;4.25;;;1.20;;
35434;SDS011;21556;55.782;37.528;2022-09-09T16:10:34;5.97;;;1.50;;
35434;SDS011;21556;55.782;37.528;2022-09-09T16:13:01;5.90;;;1.58;;
35434;SDS011;21556;55.782;37.528;2022-09-09T16:15:29;3.15;;;1.27;;
35434;SDS011;21556;55.782;37.528;2022-09-09T16:18:00;3.15;;;1.33;;
35434;SDS011;21556;55.782;37.528;2022-09-09T16:20:25;9.30;;;2.05;;
35434;SDS011;21556;55.782;37.528;2022-09-09T16:22:52;12.48;;;2.20;;
35434;SDS011;21556;55.782;37.528;2022-09-09T16:25:19;13.55;;;2.20;;
35434;SDS011;21556;55.782;37.528;2022-09-09T16:27:46;7.93;;;2.10;;
35434;SDS011;21556;55.782;37.528;2022-09-09T16:30:14;13.52;;;1.75;;
35434;SDS011;21556;55.782;37.528;2022-09-09T16:32:42;7.00;;;1.80;;
35434;SDS011;21556;55.782;37.528;2022-09-09T16:35:10;5.57;;;1.85;;
35434;SDS011;21556;55.782;37.528;2022-09-09T16:37:36;6.40;;;1.98;;
35434;SDS011;21556;55.782;37.528;2022-09-09T16:40:04;6.68;;;2.30;;
35434;SDS011;21556;55.782;37.528;2022-09-09T16:42:32;4.70;;;2.00;;
35434;SDS011;21556;55.782;37.528;2022-09-09T16:44:58;6.30;;;2.15;;
35434;SDS011;21556;55.782;37.528;2022-09-09T16:47:24;6.88;;;2.53;;
35434;SDS011;21556;55.782;37.528;2022-09-09T16:49:51;5.20;;;2.22;;
35434;SDS011;21556;55.782;37.528;2022-09-09T16:52:17;9.30;;;3.33;;
35434;SDS011;21556;55.782;37.528;2022-09-09T16:54:44;11.38;;;2.40;;
35434;SDS011;21556;55.782;37.528;2022-09-09T16:57:13;6.32;;;2.28;;
35434;SDS011;21556;55.782;37.528;2022-09-09T16:59:39;7.13;;;2.20;;
35434;SDS011;21556;55.782;37.528;2022-09-09T17:02:04;7.25;;;2.20;;
35434;SDS011;21556;55.782;37.528;2022-09-09T17:04:30;9.13;;;2.65;;
35434;SDS011;21556;55.782;37.528;2022-09-09T17:06:59;13.15;;;2.72;;
35434;SDS011;21556;55.782;37.528;2022-09-09T17:09:26;8.80;;;2.88;;
35434;SDS011;21556;55.782;37.528;2022-09-09T17:11:58;8.40;;;2.47;;
35434;SDS011;21556;55.782;37.528;2022-09-09T17:14:27;6.05;;;2.55;;
35434;SDS011;21556;55.782;37.528;2022-09-09T17:16:53;3.53;;;2.10;;
35434;SDS011;21556;55.782;37.528;2022-09-09T17:19:19;14.13;;;2.60;;